Time,TemperatureF,DewpointF,PressureIn,WindDirection,WindDirectionDegrees,WindSpeedMPH,WindSpeedGustMPH,Humidity,HourlyPrecipIn,Conditions,Clouds,dailyrainin,SoftwareType,DateUTC
2013-08-05 00:00:00,73.9,56.2,30.10,WNW,292,0.0,0.0,54,0.00,CLR,,0.00,WeatherDisplay:10.37,2013-08-05 07:00:00,
2013-08-05 00:05:00,73.9,56.2,30.10,WNW,292,0.0,0.0,54,0.00,CLR,,0.00,WeatherDisplay:10.37,2013-08-05 07:05:00,
2013-08-05 00:10:00,73.6,55.9,30.10,WNW,292,0.0,0.0,54,0.00,CLR,,0.00,WeatherDisplay:10.37,2013-08-05 07:10:00,
2013-08-05 00:20:00,73.6,56.4,30.10,WNW,292,0.0,0.0,55,0.00,CLR,,0.00,WeatherDisplay:10.37,2013-08-05 07:20:00,
2013-08-05 00:30:00,73.2,56.1,30.10,WSW,246,0.0,0.0,55,0.00,CLR,,0.00,WeatherDisplay:10.37,2013-08-05 07:30:00,
2013-08-05 00:40:00,73.2,55.6,30.10,SW,225,0.0,0.0,54,0.00,CLR,,0.00,WeatherDisplay:10.37,2013-08-05 07:40:00,
2013-08-05 00:50:00,73.2,55.6,30.10,SW,225,0.0,0.0,54,0.00,CLR,,0.00,WeatherDisplay:10.37,2013-08-05 07:50:00,
2013-08-05 01:00:00,73.2,55.6,30.10,SW,225,0.0,0.0,54,0.00,CLR,,0.00,WeatherDisplay:10.37,2013-08-05 08:00:00,
2013-08-05 01:05:00,73.2,55.6,30.10,SW,225,0.0,0.0,54,0.00,CLR,,0.00,WeatherDisplay:10.37,2013-08-05 08:05:00,
2013-08-05 01:10:00,73.2,55.6,30.10,SW,225,0.0,0.0,54,0.00,CLR,,0.00,WeatherDisplay:10.37,2013-08-05 08:10:00,
2013-08-05 01:20:00,73.2,55.6,30.09,SW,225,0.0,0.0,54,0.00,CLR,,0.00,WeatherDisplay:10.37,2013-08-05 08:20:00,
2013-08-05 01:30:00,73.2,56.1,30.09,SW,225,0.0,0.0,55,0.00,CLR,,0.00,WeatherDisplay:10.37,2013-08-05 08:30:00,
2013-08-05 01:40:00,73.2,56.1,30.10,SW,225,0.0,0.0,55,0.00,CLR,,0.00,WeatherDisplay:10.37,2013-08-05 08:40:00,
2013-08-05 01:50:00,73.2,56.1,30.09,SW,225,0.0,0.0,55,0.00,CLR,,0.00,WeatherDisplay:10.37,2013-08-05 08:50:00,
2013-08-05 02:00:00,73.2,56.1,30.10,SW,225,0.0,0.0,55,0.00,CLR,,0.00,WeatherDisplay:10.37,2013-08-05 09:00:00,
2013-08-05 02:05:00,73.2,56.1,30.10,SW,225,0.0,0.0,55,0.00,CLR,,0.00,WeatherDisplay:10.37,2013-08-05 09:05:00,
2013-08-05 02:10:00,73.2,56.1,30.10,SW,225,0.0,0.0,55,0.00,CLR,,0.00,WeatherDisplay:10.37,2013-08-05 09:10:00,
2013-08-05 02:30:00,73.0,55.9,30.10,SW,225,0.0,0.0,55,0.00,CLR,,0.00,WeatherDisplay:10.37,2013-08-05 09:30:00,
2013-08-05 02:40:00,73.0,55.9,30.10,SSW,204,0.0,0.0,55,0.00,CLR,,0.00,WeatherDisplay:10.37,2013-08-05 09:40:00,
2013-08-05 03:00:00,73.2,56.1,30.10,East,90,0.0,0.0,55,0.00,CLR,,0.00,WeatherDisplay:10.37,2013-08-05 10:00:00,
2013-08-05 03:05:00,73.2,56.1,30.10,East,90,0.0,0.0,55,0.00,CLR,,0.00,WeatherDisplay:10.37,2013-08-05 10:05:00,
2013-08-05 03:15:00,73.2,56.1,30.11,East,90,0.0,0.0,55,0.00,CLR,,0.00,WeatherDisplay:10.37,2013-08-05 10:15:00,
2013-08-05 03:25:00,73.2,56.1,30.13,East,95,5.0,8.0,55,0.00,CLR,,0.00,WeatherDisplay:10.37,2013-08-05 10:25:00,
2013-08-05 03:30:00,72.9,57.7,30.15,ESE,110,13.0,14.0,59,0.00,CLR,,0.00,WeatherDisplay:10.37,2013-08-05 10:30:00,
2013-08-05 03:40:00,71.1,56.5,30.16,North,352,2.0,5.0,60,0.00,CLR,,0.00,WeatherDisplay:10.37,2013-08-05 10:40:00,
2013-08-05 03:50:00,69.6,56.5,30.18,East,100,0.0,6.0,63,0.00,CLR,,0.00,WeatherDisplay:10.37,2013-08-05 10:50:00,
2013-08-05 04:00:00,68.4,56.6,30.18,ESE,115,0.0,0.0,66,0.04,RA,,0.08,WeatherDisplay:10.37,2013-08-05 11:00:00,
2013-08-05 04:10:00,65.9,55.4,30.19,SSE,161,0.0,5.0,69,0.04,RA,,0.14,WeatherDisplay:10.37,2013-08-05 11:10:00,
2013-08-05 04:20:00,64.2,55.4,30.21,South,184,0.0,10.0,73,0.04,RA,,0.18,WeatherDisplay:10.37,2013-08-05 11:20:00,
2013-08-05 04:30:00,63.5,55.4,30.21,South,180,0.0,0.0,75,0.04,RA,,0.22,WeatherDisplay:10.37,2013-08-05 11:30:00,
2013-08-05 04:45:00,63.3,56.3,30.23,SSE,148,0.0,0.0,78,0.04,RA,,0.35,WeatherDisplay:10.37,2013-08-05 11:45:00,
2013-08-05 04:50:00,63.3,56.3,30.23,SSE,153,0.0,0.0,78,0.04,RA,,0.39,WeatherDisplay:10.37,2013-08-05 11:50:00,
2013-08-05 05:00:00,63.3,56.7,30.23,SW,215,5.0,6.0,79,0.00,,,0.39,WeatherDisplay:10.37,2013-08-05 12:00:00,
2013-08-05 05:05:00,63.3,56.7,30.22,SSW,210,3.0,4.0,79,0.00,CLR,,0.39,WeatherDisplay:10.37,2013-08-05 12:05:00,
2013-08-05 05:15:00,63.3,57.0,30.22,SSW,192,3.0,6.0,80,0.02,RA,,0.43,WeatherDisplay:10.37,2013-08-05 12:15:00,
2013-08-05 05:20:00,63.1,56.9,30.22,SSW,196,0.0,6.0,80,0.00,RA,,0.43,WeatherDisplay:10.37,2013-08-05 12:20:00,
2013-08-05 05:25:00,63.1,56.9,30.21,SSW,193,0.0,0.0,80,0.02,RA,,0.45,WeatherDisplay:10.37,2013-08-05 12:25:00,
2013-08-05 05:30:00,63.1,56.5,30.21,SSE,152,0.0,0.0,79,0.00,RA,,0.45,WeatherDisplay:10.37,2013-08-05 12:30:00,
2013-08-05 05:40:00,63.4,56.4,30.22,SSW,212,0.0,2.0,78,0.00,RA,,0.47,WeatherDisplay:10.37,2013-08-05 12:40:00,
2013-08-05 05:50:00,63.5,56.5,30.22,South,178,0.0,0.0,78,0.00,RA,,0.49,WeatherDisplay:10.37,2013-08-05 12:50:00,
2013-08-05 06:00:00,63.5,56.5,30.22,South,185,0.0,0.0,78,0.02,RA,,0.53,WeatherDisplay:10.37,2013-08-05 13:00:00,
2013-08-05 06:05:00,63.3,56.3,30.22,South,180,0.0,0.0,78,0.02,RA,,0.55,WeatherDisplay:10.37,2013-08-05 13:05:00,
2013-08-05 06:10:00,63.3,56.3,30.22,South,180,0.0,0.0,78,0.02,RA,,0.57,WeatherDisplay:10.37,2013-08-05 13:10:00,
2013-08-05 06:25:00,63.1,56.2,30.20,South,180,0.0,0.0,78,0.02,RA,,0.61,WeatherDisplay:10.37,2013-08-05 13:25:00,
2013-08-05 06:30:00,63.1,56.2,30.20,SSW,200,2.0,3.0,78,0.00,RA,,0.61,WeatherDisplay:10.37,2013-08-05 13:30:00,
2013-08-05 06:40:00,63.1,56.2,30.18,SW,232,3.0,4.0,78,0.00,RA,,0.63,WeatherDisplay:10.37,2013-08-05 13:40:00,
2013-08-05 06:50:00,63.1,56.2,30.13,WNW,289,6.0,6.0,78,0.00,CLR,,0.63,WeatherDisplay:10.37,2013-08-05 13:50:00,
2013-08-05 06:55:00,63.1,55.8,30.11,WNW,301,0.0,6.0,77,0.00,CLR,,0.63,WeatherDisplay:10.37,2013-08-05 13:55:00,
2013-08-05 07:00:00,63.1,55.1,30.12,NNW,334,0.0,5.0,75,0.02,RA,,0.65,WeatherDisplay:10.37,2013-08-05 14:00:00,
2013-08-05 07:05:00,63.3,55.3,30.14,NE,35,0.0,5.0,75,0.00,RA,,0.65,WeatherDisplay:10.37,2013-08-05 14:05:00,
2013-08-05 07:10:00,63.3,55.3,30.14,NE,46,0.0,7.0,75,0.00,CLR,,0.65,WeatherDisplay:10.37,2013-08-05 14:10:00,
2013-08-05 07:20:00,63.7,54.9,30.15,SW,231,0.0,7.0,73,0.00,CLR,,0.65,WeatherDisplay:10.37,2013-08-05 14:20:00,
2013-08-05 07:35:00,64.2,55.8,30.17,NW,305,0.0,0.0,74,0.00,CLR,,0.65,WeatherDisplay:10.37,2013-08-05 14:35:00,
2013-08-05 07:40:00,64.6,56.5,30.17,NNW,344,0.0,0.0,75,0.00,CLR,,0.65,WeatherDisplay:10.37,2013-08-05 14:40:00,
2013-08-05 07:50:00,64.9,57.2,30.17,NE,39,0.0,0.0,76,0.00,CLR,,0.65,WeatherDisplay:10.37,2013-08-05 14:50:00,
2013-08-05 08:00:00,65.3,57.9,30.16,NE,45,0.0,0.0,77,0.00,CLR,,0.65,WeatherDisplay:10.37,2013-08-05 15:00:00,
2013-08-05 08:05:00,65.7,58.3,30.16,NE,45,0.0,0.0,77,0.00,CLR,,0.65,WeatherDisplay:10.37,2013-08-05 15:05:00,
2013-08-05 08:10:00,65.8,58.1,30.16,ENE,78,0.0,0.0,76,0.00,CLR,,0.65,WeatherDisplay:10.37,2013-08-05 15:10:00,
2013-08-05 08:20:00,66.4,58.2,30.16,SE,135,0.0,0.0,75,0.00,CLR,,0.65,WeatherDisplay:10.37,2013-08-05 15:20:00,
2013-08-05 08:30:00,66.7,58.2,30.16,SE,135,0.0,0.0,74,0.00,CLR,,0.65,WeatherDisplay:10.37,2013-08-05 15:30:00,
2013-08-05 08:35:00,66.9,58.0,30.16,SE,135,0.0,0.0,73,0.00,CLR,,0.65,WeatherDisplay:10.37,2013-08-05 15:35:00,
2013-08-05 08:40:00,67.2,57.9,30.16,SE,135,0.0,0.0,72,0.00,CLR,,0.65,WeatherDisplay:10.37,2013-08-05 15:40:00,
2013-08-05 08:50:00,67.8,57.3,30.16,SE,135,0.0,0.0,69,0.00,CLR,,0.65,WeatherDisplay:10.37,2013-08-05 15:50:00,
2013-08-05 09:00:00,68.9,57.5,30.16,SE,124,0.0,0.0,67,0.00,CLR,,0.65,WeatherDisplay:10.37,2013-08-05 16:00:00,
2013-08-05 09:05:00,69.4,58.0,30.16,East,87,0.0,0.0,67,0.00,CLR,,0.65,WeatherDisplay:10.37,2013-08-05 16:05:00,
2013-08-05 09:10:00,70.1,58.2,30.16,ENE,68,0.0,0.0,66,0.00,CLR,,0.65,WeatherDisplay:10.37,2013-08-05 16:10:00,
2013-08-05 09:25:00,71.2,59.3,30.16,NE,45,2.0,3.0,66,0.00,CLR,,0.65,WeatherDisplay:10.37,2013-08-05 16:25:00,
2013-08-05 09:35:00,72.0,59.6,30.16,NE,45,0.0,0.0,65,0.00,CLR,,0.65,WeatherDisplay:10.37,2013-08-05 16:35:00,
2013-08-05 09:45:00,72.9,59.6,30.16,NE,45,0.0,0.0,63,0.00,CLR,,0.65,WeatherDisplay:10.37,2013-08-05 16:45:00,
2013-08-05 09:50:00,73.2,59.9,30.16,NE,45,0.0,0.0,63,0.00,CLR,,0.65,WeatherDisplay:10.37,2013-08-05 16:50:00,
2013-08-05 10:00:00,74.3,59.9,30.16,NE,45,0.0,0.0,61,0.00,CLR,,0.65,WeatherDisplay:10.37,2013-08-05 17:00:00,
2013-08-05 10:05:00,74.7,60.3,30.16,NE,45,0.0,0.0,61,0.00,CLR,,0.65,WeatherDisplay:10.37,2013-08-05 17:05:00,
2013-08-05 10:10:00,75.2,60.3,30.16,NE,45,0.0,0.0,60,0.00,CLR,,0.65,WeatherDisplay:10.37,2013-08-05 17:10:00,
2013-08-05 10:20:00,75.6,59.3,30.16,NE,45,0.0,2.0,57,0.00,CLR,,0.65,WeatherDisplay:10.37,2013-08-05 17:20:00,
2013-08-05 10:30:00,76.1,59.3,30.15,NE,45,0.0,0.0,56,0.00,CLR,,0.65,WeatherDisplay:10.37,2013-08-05 17:30:00,
2013-08-05 10:40:00,76.8,59.4,30.16,NE,45,0.0,0.0,55,0.00,CLR,,0.65,WeatherDisplay:10.37,2013-08-05 17:40:00,
2013-08-05 10:50:00,77.7,59.7,30.16,NE,45,0.0,2.0,54,0.00,CLR,,0.65,WeatherDisplay:10.37,2013-08-05 17:50:00,
2013-08-05 11:00:00,78.6,59.5,30.15,ENE,68,1.0,3.0,52,0.00,CLR,,0.65,WeatherDisplay:10.37,2013-08-05 18:00:00,
2013-08-05 11:10:00,79.3,59.0,30.15,ENE,68,0.0,0.0,50,0.00,CLR,,0.65,WeatherDisplay:10.37,2013-08-05 18:10:00,
2013-08-05 11:20:00,79.5,59.2,30.15,ENE,68,0.0,0.0,50,0.00,CLR,,0.65,WeatherDisplay:10.37,2013-08-05 18:20:00,
2013-08-05 11:30:00,80.1,59.7,30.15,ENE,68,0.0,0.0,50,0.00,CLR,,0.65,WeatherDisplay:10.37,2013-08-05 18:30:00,
2013-08-05 11:40:00,80.7,59.7,30.14,ENE,68,0.0,0.0,49,0.00,CLR,,0.65,WeatherDisplay:10.37,2013-08-05 18:40:00,
2013-08-05 11:45:00,81.1,60.1,30.14,ENE,68,0.0,0.0,49,0.00,CLR,,0.65,WeatherDisplay:10.37,2013-08-05 18:45:00,
2013-08-05 11:55:00,81.7,60.1,30.14,ENE,64,0.0,0.0,48,0.00,CLR,,0.65,WeatherDisplay:10.37,2013-08-05 18:55:00,
2013-08-05 12:05:00,82.6,60.3,30.14,NE,45,0.0,0.0,47,0.00,CLR,,0.65,WeatherDisplay:10.37,2013-08-05 19:05:00,
2013-08-05 12:10:00,82.9,60.0,30.13,NE,45,0.0,0.0,46,0.00,CLR,,0.65,WeatherDisplay:10.37,2013-08-05 19:10:00,
2013-08-05 12:25:00,84.3,60.0,30.13,NE,45,0.0,0.0,44,0.00,CLR,,0.65,WeatherDisplay:10.37,2013-08-05 19:25:00,
2013-08-05 12:30:00,84.4,60.1,30.14,NE,45,0.0,0.0,44,0.00,CLR,,0.65,WeatherDisplay:10.37,2013-08-05 19:30:00,
2013-08-05 12:40:00,85.0,60.0,30.13,North,9,1.0,3.0,43,0.00,CLR,,0.65,WeatherDisplay:10.37,2013-08-05 19:40:00,
2013-08-05 12:50:00,85.6,59.9,30.13,ENE,66,0.0,0.0,42,0.00,CLR,,0.65,WeatherDisplay:10.37,2013-08-05 19:50:00,
2013-08-05 13:00:00,85.6,59.9,30.13,ENE,68,0.0,0.0,42,0.00,CLR,,0.65,WeatherDisplay:10.37,2013-08-05 20:00:00,
2013-08-05 13:05:00,85.6,59.2,30.13,ENE,68,1.0,5.0,41,0.00,CLR,,0.65,WeatherDisplay:10.37,2013-08-05 20:05:00,
2013-08-05 13:10:00,85.6,60.6,30.13,ENE,68,0.0,5.0,43,0.00,CLR,,0.65,WeatherDisplay:10.37,2013-08-05 20:10:00,
2013-08-05 13:15:00,85.3,59.6,30.13,ENE,68,0.0,0.0,42,0.00,CLR,,0.65,WeatherDisplay:10.37,2013-08-05 20:15:00,
2013-08-05 13:20:00,85.3,60.3,30.13,NE,36,0.0,0.0,43,0.00,CLR,,0.65,WeatherDisplay:10.37,2013-08-05 20:20:00,
2013-08-05 13:30:00,85.6,60.6,30.13,WNW,303,0.0,0.0,43,0.00,CLR,,0.65,WeatherDisplay:10.37,2013-08-05 20:30:00,
2013-08-05 13:45:00,85.3,60.3,30.13,WSW,251,3.0,5.0,43,0.00,CLR,,0.65,WeatherDisplay:10.37,2013-08-05 20:45:00,
2013-08-05 13:50:00,84.7,57.7,30.12,WSW,248,7.0,8.0,40,0.00,CLR,,0.65,WeatherDisplay:10.37,2013-08-05 20:50:00,
2013-08-05 14:00:00,84.0,58.5,30.12,WSW,237,3.0,8.0,42,0.00,CLR,,0.65,WeatherDisplay:10.37,2013-08-05 21:00:00,
2013-08-05 14:05:00,83.6,58.1,30.11,SW,230,0.0,1.0,42,0.00,CLR,,0.65,WeatherDisplay:10.37,2013-08-05 21:05:00,
2013-08-05 14:10:00,83.5,58.6,30.11,West,270,1.0,2.0,43,0.00,CLR,,0.65,WeatherDisplay:10.37,2013-08-05 21:10:00,
2013-08-05 14:20:00,83.8,57.6,30.10,WSW,248,0.0,2.0,41,0.00,CLR,,0.65,WeatherDisplay:10.37,2013-08-05 21:20:00,
2013-08-05 14:35:00,85.7,57.9,30.10,WSW,248,0.0,6.0,39,0.00,CLR,,0.65,WeatherDisplay:10.37,2013-08-05 21:35:00,
2013-08-05 14:40:00,86.4,57.8,30.09,WSW,248,3.0,6.0,38,0.00,CLR,,0.65,WeatherDisplay:10.37,2013-08-05 21:40:00,
2013-08-05 14:50:00,87.1,57.7,30.09,WSW,248,0.0,0.0,37,0.00,CLR,,0.65,WeatherDisplay:10.37,2013-08-05 21:50:00,
2013-08-05 15:05:00,88.3,58.8,30.09,WSW,256,0.0,0.0,37,0.00,CLR,,0.65,WeatherDisplay:10.37,2013-08-05 22:05:00,
2013-08-05 15:10:00,88.3,58.0,30.09,West,259,0.0,0.0,36,0.00,CLR,,0.65,WeatherDisplay:10.37,2013-08-05 22:10:00,
2013-08-05 15:15:00,88.0,58.4,30.09,West,274,0.0,0.0,37,0.00,CLR,,0.65,WeatherDisplay:10.37,2013-08-05 22:15:00,
2013-08-05 15:20:00,87.8,59.0,30.09,WNW,288,7.0,7.0,38,0.00,CLR,,0.65,WeatherDisplay:10.37,2013-08-05 22:20:00,
2013-08-05 15:30:00,87.4,58.7,30.08,West,278,5.0,7.0,38,0.00,CLR,,0.65,WeatherDisplay:10.37,2013-08-05 22:30:00,
2013-08-05 15:45:00,87.4,59.4,30.09,WSW,252,1.0,8.0,39,0.00,CLR,,0.65,WeatherDisplay:10.37,2013-08-05 22:45:00,
2013-08-05 15:50:00,87.4,60.2,30.08,WNW,283,0.0,7.0,40,0.00,CLR,,0.65,WeatherDisplay:10.37,2013-08-05 22:50:00,
2013-08-05 16:00:00,86.7,58.8,30.08,WNW,289,0.0,1.0,39,0.00,CLR,,0.65,WeatherDisplay:10.37,2013-08-05 23:00:00,
2013-08-05 16:10:00,85.9,58.7,30.07,WNW,293,1.0,2.0,40,0.00,CLR,,0.65,WeatherDisplay:10.37,2013-08-05 23:10:00,
2013-08-05 16:20:00,85.2,58.2,30.08,WNW,297,0.0,4.0,40,0.00,CLR,,0.65,WeatherDisplay:10.37,2013-08-05 23:20:00,
2013-08-05 16:30:00,84.4,57.4,30.08,NW,315,0.0,0.0,40,0.00,CLR,,0.65,WeatherDisplay:10.37,2013-08-05 23:30:00,
2013-08-05 16:40:00,83.8,57.6,30.07,NW,315,0.0,0.0,41,0.00,CLR,,0.65,WeatherDisplay:10.37,2013-08-05 23:40:00,
2013-08-05 16:50:00,82.9,58.7,30.08,NW,315,0.0,0.0,44,0.00,CLR,,0.65,WeatherDisplay:10.37,2013-08-05 23:50:00,
2013-08-05 17:10:00,80.4,61.2,30.07,WNW,301,0.0,0.0,52,0.00,CLR,,0.65,WeatherDisplay:10.37,2013-08-06 00:10:00,
2013-08-05 17:25:00,78.6,61.1,30.07,WNW,292,0.0,0.0,55,0.00,CLR,,0.65,WeatherDisplay:10.37,2013-08-06 00:25:00,
2013-08-05 17:30:00,78.1,60.6,30.08,West,270,0.0,0.0,55,0.00,CLR,,0.65,WeatherDisplay:10.37,2013-08-06 00:30:00,
2013-08-05 17:45:00,76.8,60.9,30.07,SW,232,0.0,0.0,58,0.00,CLR,,0.65,WeatherDisplay:10.37,2013-08-06 00:45:00,
2013-08-05 17:50:00,76.5,60.6,30.07,SW,223,0.0,0.0,58,0.00,CLR,,0.65,WeatherDisplay:10.37,2013-08-06 00:50:00,
2013-08-05 18:10:00,75.4,59.6,30.07,SSW,207,0.0,0.0,58,0.00,CLR,,0.65,WeatherDisplay:10.37,2013-08-06 01:10:00,
2013-08-05 18:20:00,75.0,59.2,30.08,SSW,202,0.0,0.0,58,0.00,CLR,,0.65,WeatherDisplay:10.37,2013-08-06 01:20:00,
2013-08-05 18:30:00,74.5,59.2,30.08,South,171,0.0,0.0,59,0.00,CLR,,0.65,WeatherDisplay:10.37,2013-08-06 01:30:00,
2013-08-05 18:45:00,73.9,59.2,30.08,SSE,158,0.0,0.0,60,0.00,CLR,,0.65,WeatherDisplay:10.37,2013-08-06 01:45:00,
2013-08-05 18:50:00,73.8,59.0,30.08,South,170,0.0,0.0,60,0.00,CLR,,0.65,WeatherDisplay:10.37,2013-08-06 01:50:00,
2013-08-05 18:55:00,73.6,59.3,30.08,SW,227,0.0,0.0,61,0.00,CLR,,0.65,WeatherDisplay:10.37,2013-08-06 01:55:00,
2013-08-05 19:00:00,73.6,59.3,30.08,WSW,250,0.0,0.0,61,0.00,CLR,,0.65,WeatherDisplay:10.37,2013-08-06 02:00:00,
2013-08-05 19:05:00,73.3,59.1,30.09,WSW,248,0.0,0.0,61,0.00,CLR,,0.65,WeatherDisplay:10.37,2013-08-06 02:05:00,
2013-08-05 19:15:00,73.2,59.0,30.09,WSW,248,0.0,0.0,61,0.00,CLR,,0.65,WeatherDisplay:10.37,2013-08-06 02:15:00,
2013-08-05 19:20:00,73.2,59.0,30.09,WSW,248,0.0,0.0,61,0.00,CLR,,0.65,WeatherDisplay:10.37,2013-08-06 02:20:00,
2013-08-05 19:30:00,73.2,59.9,30.09,WSW,248,0.0,0.0,63,0.00,CLR,,0.65,WeatherDisplay:10.37,2013-08-06 02:30:00,
2013-08-05 19:40:00,73.2,60.3,30.10,East,85,2.0,3.0,64,0.00,CLR,,0.65,WeatherDisplay:10.37,2013-08-06 02:40:00,
2013-08-05 19:50:00,72.6,60.6,30.11,East,92,1.0,9.0,66,0.00,CLR,,0.65,WeatherDisplay:10.37,2013-08-06 02:50:00,
2013-08-05 20:00:00,72.3,60.7,30.11,ENE,66,6.0,6.0,67,0.00,CLR,,0.65,WeatherDisplay:10.37,2013-08-06 03:00:00,
2013-08-05 20:10:00,72.1,60.9,30.11,ENE,71,0.0,7.0,68,0.00,CLR,,0.65,WeatherDisplay:10.37,2013-08-06 03:10:00,
2013-08-05 20:25:00,71.4,60.3,30.11,SE,126,0.0,0.0,68,0.00,CLR,,0.65,WeatherDisplay:10.37,2013-08-06 03:25:00,
2013-08-05 20:30:00,71.2,60.1,30.11,SE,129,0.0,0.0,68,0.00,CLR,,0.65,WeatherDisplay:10.37,2013-08-06 03:30:00,
2013-08-05 20:35:00,71.2,60.1,30.11,SE,135,0.0,0.0,68,0.00,CLR,,0.65,WeatherDisplay:10.37,2013-08-06 03:35:00,
2013-08-05 20:40:00,70.9,59.8,30.10,SE,135,0.0,0.0,68,0.00,CLR,,0.65,WeatherDisplay:10.37,2013-08-06 03:40:00,
2013-08-05 20:45:00,70.9,59.8,30.11,SE,135,0.0,0.0,68,0.00,CLR,,0.65,WeatherDisplay:10.37,2013-08-06 03:45:00,
2013-08-05 20:50:00,70.6,59.5,30.12,SE,135,0.0,0.0,68,0.00,CLR,,0.65,WeatherDisplay:10.37,2013-08-06 03:50:00,
2013-08-05 21:00:00,70.5,59.4,30.11,SE,135,0.0,0.0,68,0.00,CLR,,0.65,WeatherDisplay:10.37,2013-08-06 04:00:00,
2013-08-05 21:05:00,70.5,59.4,30.11,SE,135,0.0,0.0,68,0.00,CLR,,0.65,WeatherDisplay:10.37,2013-08-06 04:05:00,
2013-08-05 21:10:00,70.5,59.9,30.11,SE,135,0.0,0.0,69,0.00,CLR,,0.65,WeatherDisplay:10.37,2013-08-06 04:10:00,
2013-08-05 21:15:00,70.5,59.9,30.11,SE,135,0.0,0.0,69,0.00,CLR,,0.65,WeatherDisplay:10.37,2013-08-06 04:15:00,
2013-08-05 21:20:00,70.3,60.1,30.11,SE,135,0.0,0.0,70,0.00,CLR,,0.65,WeatherDisplay:10.37,2013-08-06 04:20:00,
2013-08-05 21:30:00,70.3,60.5,30.11,SE,135,0.0,0.0,71,0.00,CLR,,0.65,WeatherDisplay:10.37,2013-08-06 04:30:00,
2013-08-05 21:40:00,70.2,60.7,30.11,SE,135,0.0,0.0,72,0.00,CLR,,0.65,WeatherDisplay:10.37,2013-08-06 04:40:00,
2013-08-05 21:50:00,70.2,60.7,30.11,West,270,0.0,1.0,72,0.00,CLR,,0.65,WeatherDisplay:10.37,2013-08-06 04:50:00,
2013-08-05 22:00:00,70.0,60.5,30.11,NW,311,0.0,0.0,72,0.00,CLR,,0.65,WeatherDisplay:10.37,2013-08-06 05:00:00,
2013-08-05 22:05:00,69.8,60.4,30.11,NW,315,0.0,0.0,72,0.00,CLR,,0.65,WeatherDisplay:10.37,2013-08-06 05:05:00,
2013-08-05 22:10:00,69.8,60.4,30.11,NW,315,0.0,0.0,72,0.00,CLR,,0.65,WeatherDisplay:10.37,2013-08-06 05:10:00,
2013-08-05 22:20:00,69.6,60.6,30.11,NW,315,0.0,0.0,73,0.00,CLR,,0.65,WeatherDisplay:10.37,2013-08-06 05:20:00,
2013-08-05 22:30:00,69.4,60.4,30.12,NW,315,0.0,0.0,73,0.00,CLR,,0.65,WeatherDisplay:10.37,2013-08-06 05:30:00,
2013-08-05 22:40:00,69.1,60.4,30.11,NW,315,0.0,0.0,74,0.00,CLR,,0.65,WeatherDisplay:10.37,2013-08-06 05:40:00,
2013-08-05 22:45:00,69.1,60.1,30.12,NW,315,0.0,0.0,73,0.00,CLR,,0.65,WeatherDisplay:10.37,2013-08-06 05:45:00,
2013-08-05 22:50:00,68.9,59.9,30.12,NW,315,0.0,0.0,73,0.00,CLR,,0.65,WeatherDisplay:10.37,2013-08-06 05:50:00,
2013-08-05 23:00:00,68.7,59.7,30.13,NW,315,0.0,0.0,73,0.00,CLR,,0.65,WeatherDisplay:10.37,2013-08-06 06:00:00,
2013-08-05 23:05:00,68.7,59.7,30.12,NW,315,0.0,0.0,73,0.00,CLR,,0.65,WeatherDisplay:10.37,2013-08-06 06:05:00,
2013-08-05 23:10:00,68.7,59.3,30.13,NW,315,0.0,0.0,72,0.00,CLR,,0.65,WeatherDisplay:10.37,2013-08-06 06:10:00,
2013-08-05 23:20:00,68.7,59.3,30.12,North,357,0.0,0.0,72,0.00,CLR,,0.65,WeatherDisplay:10.37,2013-08-06 06:20:00,
2013-08-05 23:25:00,68.6,59.2,30.12,NNE,22,0.0,0.0,72,0.00,CLR,,0.65,WeatherDisplay:10.37,2013-08-06 06:25:00,
2013-08-05 23:30:00,68.5,59.2,30.12,NNE,22,0.0,0.0,72,0.00,CLR,,0.65,WeatherDisplay:10.37,2013-08-06 06:30:00,
2013-08-05 23:40:00,68.5,58.4,30.12,WNW,297,0.0,0.0,70,0.00,CLR,,0.65,WeatherDisplay:10.37,2013-08-06 06:40:00,
2013-08-05 23:50:00,68.4,58.2,30.12,WNW,292,0.0,0.0,70,0.00,CLR,,0.65,WeatherDisplay:10.37,2013-08-06 06:50:00,